• Join FlightAware (Why Join?)
  • Login
  • US Flag 
02:54AM EDT


 

Airport Tracker/Info


-or-


 

Live Flight TrackerFlight Track Log ✈ N570ML ✈ 05-May-2013 ✈ KANB - KJQF

Flight Track Log - Related Links

Times and Time Zones

All times are in EDT time to prevent confusion due to time zone crossing. See the N570ML flight status page for this flight to view local times or setup timezone preferences in your user account.

Time Position Orientation Groundspeed Altitude Reporting Facility
EDT Latitude Longitude Course Direction KTS MPH feet Rate Location/Type
09:35PM 33.6825 -85.7364 66° East 255 293 4,600  Level Atlanta Center
09:36PM 33.7356 -85.6650 48° Northeast 271 312 5,000 840 Climbing Atlanta Center
09:37PM 33.7114 -85.5969 113° Southeast 194 223 6,400 2,100 Climbing Atlanta Center
09:38PM 33.6303 -85.5733 166° South 222 255 9,300 2,400 Climbing Atlanta Center
09:39PM 33.8430 -85.1775 66° East  Level Estimated
09:39PM 33.5514 -85.5444 163° South 274 315 11,300  Level Atlanta Center
09:40PM 33.4875 -85.4686 135° Southeast 322 371 12,800 1,500 Climbing Atlanta Center
09:41PM 33.4825 -85.3439 93° East 344 396 14,400 1,500 Climbing Atlanta Center
09:42PM 33.4881 -85.2119 87° East 372 428 15,900 1,500 Climbing Atlanta Center
09:43PM 33.4997 -85.0775 84° East 397 457 17,400 1,500 Climbing Atlanta Center
09:44PM 33.5258 -84.9458 77° East 406 467 19,000 1,500 Climbing Atlanta Center
09:45PM 33.5539 -84.8117 76° East 411 473 20,500 960 Climbing Atlanta Center
09:46PM 33.5819 -84.6722 76° East 419 482 21,000 600 Climbing Atlanta Center
09:47PM 33.6117 -84.5278 76° East 431 496 21,700 480 Climbing Atlanta Center
09:48PM 33.6414 -84.3806 76° East 443 510 22,000 300 Climbing Atlanta Center
09:49PM 33.6772 -84.2336 74° East 453 521 22,300 960 Climbing Atlanta Center
09:50PM 33.7253 -84.0936 68° East 462 532 24,000 1,560 Climbing Atlanta Center
09:51PM 33.7650 -83.9564 71° East 442 509 25,500 1,140 Climbing Atlanta Center
09:52PM 33.7983 -83.8364 71° East 429 494 26,300 720 Climbing Atlanta Center
09:53PM 33.8356 -83.6986 72° East 429 494 27,000 300 Climbing Atlanta Center
09:54PM 33.8747 -83.5558 72° East 435 501 27,000  Level Atlanta Center
09:55PM 33.9158 -83.4106 71° East 451 519 27,000  Level Atlanta Center
09:56PM 33.9547 -83.2650 72° East 456 525 27,000 -120 Level Atlanta Center
09:57PM 33.9953 -83.1192 71° East 456 525 26,800 -660 Descending Atlanta Center
09:58PM 34.0275 -82.9811 74° East 443 510 25,700 -1,080 Descending Atlanta Center
09:59PM 34.0661 -82.8528 70° East 416 479 24,700 -900 Descending Atlanta Center
10:00PM 34.1064 -82.7117 71° East 399 459 24,000 -360 Descending Atlanta Center
10:01PM 34.1303 -82.6108 74° East 394 453 24,000  Level Atlanta Center
10:02PM 34.1661 -82.4747 72° East 387 445 24,000  Level Atlanta Center
10:03PM 34.2000 -82.3458 72° East 387 445 24,000 -240 Level Atlanta Center
10:04PM 34.2336 -82.2147 73° East 392 451 23,600 -1,200 Descending Atlanta Center
10:05PM 34.2944 -82.1028 57° Northeast 397 457 21,600 -1,740 Descending Atlanta Center
10:06PM 34.3661 -82.0106 47° Northeast 378 435 20,200 -1,260 Descending Atlanta Center
10:07PM 34.4333 -81.9233 47° Northeast 364 419 19,100 -1,140 Descending Atlanta Center
10:08PM 34.5008 -81.8383 46° Northeast 347 399 18,000 -1,620 Descending Atlanta Center
10:09PM 34.5703 -81.7483 47° Northeast 342 394 15,900 -2,220 Descending Atlanta Center
10:10PM 34.6108 -81.6992 45° Northeast 347 399 14,600 -2,220 Descending Atlanta Center
10:10PM 34.6333 -81.6708 46° Northeast 341 392 13,700 -1,680 Descending Atlanta Center
10:11PM 34.7028 -81.5881 44° Northeast 317 365 12,200 -900 Descending Atlanta Center
10:12PM 34.7597 -81.5131 47° Northeast 305 351 11,900 -480 Descending Atlanta Center
10:13PM 34.8164 -81.4353 48° Northeast 305 351 11,300 -1,260 Descending Atlanta Center
10:14PM 34.8458 -81.3508 67° East 278 320 9,400 -1,200 Descending Atlanta Center
10:15PM 34.8586 -81.2719 79° East 266 306 9,000 -240 Descending Atlanta Center
10:16PM 34.8650 -81.1858 85° East 261 300 9,000  Level Atlanta Center
10:17PM 34.8714 -81.0969 85° East 256 295 9,000  Level Atlanta Center
10:18PM 34.8728 -81.0692 87° East 265 305 9,000 -420 Level Atlanta Center
10:18PM 34.8733 -81.0058 89° East 256 295 8,600 -1,200 Descending Atlanta Center
10:19PM 34.8794 -80.9169 85° East 256 295 7,000 -1,740 Descending Atlanta Center
10:20PM 34.8786 -80.8867 92° East 247 284 6,400 -780 Descending Atlanta Center
10:21PM 34.8831 -80.8106 86° East 224 258 6,000 -240 Descending Atlanta Center
10:22PM 34.8872 -80.7344 86° East 226 260 6,000  Level Atlanta Center
10:23PM 34.8894 -80.6658 88° East 194 223 6,000 -60 Level Atlanta Center
10:24PM 34.9086 -80.6017 70° East 209 241 5,900 -840 Descending Atlanta Center
10:25PM 34.9733 -80.5992 North 266 306 4,400 -1,500 Descending Atlanta Center
10:26PM 35.0383 -80.6192 346° North 249 287 3,000 -720 Descending Atlanta Center
10:27PM 35.1036 -80.6369 347° North 224 258 3,000  Level Atlanta Center
10:28PM 35.1669 -80.6672 339° North 227 261 3,000 -240 Level Atlanta Center
10:29PM 35.1878 -80.7400 289° West 239 275 2,500 -300 Descending Atlanta Center
10:30PM 35.2381 -80.7458 355° North 188 216 2,500  Level Atlanta Center
10:31PM 35.2858 -80.7361 North 140 161 2,500 -540 Level Atlanta Center
10:32PM 35.3272 -80.7244 13° North 150 173 1,400 -780 Descending Atlanta Center
10:33PM 35.3583 -80.7181 10° North 146 168 1,100 -360 Descending Atlanta Center